Time;durP1;ratioP1;P1;durP2;ratioP2;P2;SDS_P1;SDS_P2;PMS_P1;PMS_P2;Temp;Humidity;BMP_temperature;BMP_pressure;BME280_temperature;BME280_humidity;BME280_pressure;Samples;Min_cycle;Max_cycle;Signal;HPM_P1;HPM_P2
2021/12/09 00:01:43;;;;;;;;;;;24.10;50.20;;;;;;1540868;76;1758;-71
2021/12/09 00:03:45;;;;;;;;;;;24.10;50.20;;;;;;1553432;76;752;-71
2021/12/09 00:05:47;;;;;;;;;;;24.10;50.20;;;;;;1554072;75;793;-70
2021/12/09 00:07:52;;;;;;;;;;;24.20;50.20;;;;;;1543796;75;1916;-72
2021/12/09 00:09:52;;;;;;;;;;;24.20;50.30;;;;;;1553430;76;1638;-71
2021/12/09 00:11:54;;;;;;;;;;;24.20;50.40;;;;;;1564565;74;1113;-72
2021/12/09 00:13:56;;;;;;;;;;;24.20;50.40;;;;;;1555286;75;696;-71
2021/12/09 00:15:58;;;;;;;;;;;24.20;50.40;;;;;;1564744;74;785;-72
2021/12/09 00:18:00;;;;;;;;;;;24.20;50.30;;;;;;1558338;74;749;-71
2021/12/09 00:20:02;;;;;;;;;;;24.10;50.30;;;;;;1561243;76;754;-72
2021/12/09 00:22:07;;;;;;;;;;;24.20;50.30;;;;;;1556625;76;1157;-72
2021/12/09 00:24:09;;;;;;;;;;;24.20;50.30;;;;;;1552030;76;776;-72
2021/12/09 00:26:11;;;;;;;;;;;24.10;50.20;;;;;;1562240;75;813;-72
2021/12/09 00:28:13;;;;;;;;;;;24.20;50.30;;;;;;1557805;75;1938;-71
2021/12/09 00:30:15;;;;;;;;;;;24.10;50.30;;;;;;1563645;74;704;-71
2021/12/09 00:32:18;;;;;;;;;;;24.10;50.20;;;;;;1549630;74;1117;-71
2021/12/09 00:34:20;;;;;;;;;;;24.10;50.20;;;;;;1549967;75;794;-71
2021/12/09 00:36:33;;;;;;;;;;;24.00;50.10;;;;;;1544199;75;740;-71
2021/12/09 00:38:38;;;;;;;;;;;24.00;50.10;;;;;;1563289;74;1153;-71
2021/12/09 00:40:38;;;;;;;;;;;24.10;50.20;;;;;;1559677;74;1576;-71
2021/12/09 00:42:40;;;;;;;;;;;24.10;50.30;;;;;;1555546;76;705;-68
2021/12/09 00:44:42;;;;;;;;;;;24.10;50.20;;;;;;1564134;74;691;-72
2021/12/09 00:46:44;;;;;;;;;;;24.10;50.20;;;;;;1572809;75;801;-72
2021/12/09 00:48:46;;;;;;;;;;;24.10;50.20;;;;;;1562593;75;1927;-70
2021/12/09 00:50:47;;;;;;;;;;;24.10;50.20;;;;;;1559712;76;1149;-69
2021/12/09 00:52:49;;;;;;;;;;;24.10;50.20;;;;;;1563129;74;724;-69
2021/12/09 00:54:54;;;;;;;;;;;24.10;50.20;;;;;;1561362;74;770;-70
2021/12/09 00:56:56;;;;;;;;;;;24.10;50.20;;;;;;1554756;75;2194;-70
2021/12/09 00:58:58;;;;;;;;;;;24.10;50.20;;;;;;1554108;76;733;-70
2021/12/09 01:01:00;;;;;;;;;;;24.10;50.20;;;;;;1557138;76;1143;-71
2021/12/09 01:03:01;;;;;;;;;;;24.20;50.20;;;;;;1566067;74;704;-71
2021/12/09 01:05:04;;;;;;;;;;;24.10;50.20;;;;;;1554820;75;801;-71
2021/12/09 01:07:06;;;;;;;;;;;24.10;50.20;;;;;;1554679;75;710;-70
2021/12/09 01:09:08;;;;;;;;;;;24.10;50.20;;;;;;1562136;75;1946;-70
2021/12/09 01:11:10;;;;;;;;;;;24.10;50.20;;;;;;1564260;75;1116;-71
2021/12/09 01:13:12;;;;;;;;;;;24.10;50.20;;;;;;1563957;76;674;-71
2021/12/09 01:15:14;;;;;;;;;;;24.00;50.00;;;;;;1564796;75;798;-71
2021/12/09 01:17:16;;;;;;;;;;;24.10;50.10;;;;;;1547137;75;642;-72
2021/12/09 01:19:18;;;;;;;;;;;24.10;50.10;;;;;;1565053;76;730;-70
2021/12/09 01:21:20;;;;;;;;;;;24.10;50.20;;;;;;1565605;75;1194;-70
2021/12/09 01:23:22;;;;;;;;;;;24.10;50.20;;;;;;1565868;76;767;-71
2021/12/09 01:25:24;;;;;;;;;;;24.10;50.20;;;;;;1554791;75;792;-70
2021/12/09 01:27:27;;;;;;;;;;;24.10;50.20;;;;;;1561881;76;762;-72
2021/12/09 01:29:35;;;;;;;;;;;24.10;50.30;;;;;;1566198;76;1919;-70
2021/12/09 01:31:37;;;;;;;;;;;24.10;50.30;;;;;;1565345;76;1638;-72
2021/12/09 01:33:36;;;;;;;;;;;24.00;50.10;;;;;;1558647;75;1666;-70
2021/12/09 01:35:40;;;;;;;;;;;24.10;50.20;;;;;;1565181;75;691;-70
2021/12/09 01:37:42;;;;;;;;;;;24.10;50.30;;;;;;1563962;75;1976;-71
2021/12/09 01:39:44;;;;;;;;;;;24.10;50.20;;;;;;1565531;76;791;-71
2021/12/09 01:41:45;;;;;;;;;;;24.00;50.20;;;;;;1558765;75;1153;-70
2021/12/09 01:43:48;;;;;;;;;;;24.10;50.30;;;;;;1565497;75;780;-71
2021/12/09 01:45:50;;;;;;;;;;;24.10;50.20;;;;;;1565376;76;845;-71
2021/12/09 01:47:51;;;;;;;;;;;24.10;50.20;;;;;;1553396;75;1206;-72
2021/12/09 01:49:54;;;;;;;;;;;24.10;50.20;;;;;;1563897;76;1934;-71
2021/12/09 01:51:56;;;;;;;;;;;24.00;50.10;;;;;;1565562;76;1125;-71
2021/12/09 01:53:58;;;;;;;;;;;24.00;50.10;;;;;;1557479;76;719;-72
2021/12/09 01:56:00;;;;;;;;;;;24.10;50.20;;;;;;1552478;76;742;-71
2021/12/09 01:58:02;;;;;;;;;;;24.00;50.10;;;;;;1547257;75;764;-72
2021/12/09 02:00:05;;;;;;;;;;;24.10;50.10;;;;;;1564462;76;799;-73
2021/12/09 02:02:07;;;;;;;;;;;24.10;50.20;;;;;;1564729;76;1619;-70
2021/12/09 02:04:10;;;;;;;;;;;24.10;50.10;;;;;;1560049;75;727;-72
2021/12/09 02:06:11;;;;;;;;;;;24.10;50.10;;;;;;1563495;76;721;-70
2021/12/09 02:08:14;;;;;;;;;;;24.10;50.10;;;;;;1564881;75;705;-71
2021/12/09 02:10:17;;;;;;;;;;;24.10;50.10;;;;;;1565483;75;1922;-71
2021/12/09 02:12:19;;;;;;;;;;;24.10;50.10;;;;;;1566493;76;1128;-72
2021/12/09 02:14:20;;;;;;;;;;;24.00;50.00;;;;;;1562113;75;750;-71
2021/12/09 02:16:22;;;;;;;;;;;24.00;50.00;;;;;;1553278;75;703;-71
2021/12/09 02:18:24;;;;;;;;;;;24.00;50.00;;;;;;1559656;76;758;-70
2021/12/09 02:20:28;;;;;;;;;;;24.10;50.10;;;;;;1565604;76;779;-71
2021/12/09 02:22:31;;;;;;;;;;;24.10;50.00;;;;;;1565005;76;1827;-71
2021/12/09 02:24:32;;;;;;;;;;;24.10;50.00;;;;;;1564117;76;737;-71
2021/12/09 02:26:35;;;;;;;;;;;24.00;49.90;;;;;;1554825;76;770;-71
2021/12/09 02:28:37;;;;;;;;;;;24.00;49.90;;;;;;1565623;76;696;-70
2021/12/09 02:30:39;;;;;;;;;;;24.00;49.90;;;;;;1565599;76;1939;-70
2021/12/09 02:32:41;;;;;;;;;;;24.00;49.90;;;;;;1558061;74;2128;-62
2021/12/09 02:34:43;;;;;;;;;;;24.00;49.90;;;;;;1554703;76;752;-62
2021/12/09 02:36:45;;;;;;;;;;;24.00;49.80;;;;;;1552738;76;802;-64
2021/12/09 02:38:48;;;;;;;;;;;24.00;49.90;;;;;;1561150;76;814;-65
2021/12/09 02:40:50;;;;;;;;;;;24.00;49.90;;;;;;1559474;76;717;-62
2021/12/09 02:42:52;;;;;;;;;;;24.00;49.80;;;;;;1555401;76;1180;-63
2021/12/09 02:44:55;;;;;;;;;;;24.00;49.90;;;;;;1550673;76;750;-62
2021/12/09 02:46:57;;;;;;;;;;;24.00;49.80;;;;;;1544444;76;805;-63
2021/12/09 02:48:59;;;;;;;;;;;24.00;49.80;;;;;;1551538;76;1935;-62
2021/12/09 02:51:01;;;;;;;;;;;24.00;49.80;;;;;;1553637;76;823;-62
2021/12/09 02:53:03;;;;;;;;;;;24.00;49.80;;;;;;1549712;76;1133;-62
2021/12/09 02:55:05;;;;;;;;;;;24.00;49.80;;;;;;1555855;76;738;-63
2021/12/09 02:57:07;;;;;;;;;;;23.90;49.70;;;;;;1553715;76;833;-62
2021/12/09 02:59:09;;;;;;;;;;;24.00;49.70;;;;;;1551839;76;816;-63
2021/12/09 03:01:16;;;;;;;;;;;23.90;49.70;;;;;;1551548;76;1153;-62
2021/12/09 03:03:17;;;;;;;;;;;24.00;49.70;;;;;;1554831;76;794;-63
2021/12/09 03:05:19;;;;;;;;;;;24.00;49.70;;;;;;1550723;76;667;-63
2021/12/09 03:07:30;;;;;;;;;;;24.00;49.70;;;;;;1550603;76;769;-63
2021/12/09 03:09:31;;;;;;;;;;;23.90;49.80;;;;;;1553709;76;1939;-63
2021/12/09 03:11:33;;;;;;;;;;;23.90;49.80;;;;;;1550119;76;1123;-62
2021/12/09 03:13:35;;;;;;;;;;;24.00;49.90;;;;;;1549463;76;714;-63
2021/12/09 03:15:37;;;;;;;;;;;24.00;49.80;;;;;;1543204;76;754;-64
2021/12/09 03:17:40;;;;;;;;;;;24.00;49.90;;;;;;1550634;76;788;-64
2021/12/09 03:19:42;;;;;;;;;;;24.00;49.90;;;;;;1558604;76;796;-63
2021/12/09 03:21:44;;;;;;;;;;;24.00;49.90;;;;;;1559570;76;1146;-62
2021/12/09 03:23:46;;;;;;;;;;;24.00;49.90;;;;;;1554734;76;726;-63
2021/12/09 03:25:49;;;;;;;;;;;24.00;49.90;;;;;;1553271;76;679;-63
2021/12/09 03:27:51;;;;;;;;;;;23.90;49.90;;;;;;1551848;76;681;-63
2021/12/09 03:29:53;;;;;;;;;;;24.00;49.90;;;;;;1553965;76;1947;-63
2021/12/09 03:31:55;;;;;;;;;;;24.00;49.90;;;;;;1557151;76;1221;-63
2021/12/09 03:33:57;;;;;;;;;;;23.90;49.90;;;;;;1548033;76;665;-63
2021/12/09 03:36:00;;;;;;;;;;;24.00;49.90;;;;;;1548389;76;935;-63
2021/12/09 03:38:01;;;;;;;;;;;24.00;49.90;;;;;;1553771;76;848;-63
2021/12/09 03:40:04;;;;;;;;;;;24.00;49.90;;;;;;1552960;76;758;-63
2021/12/09 03:42:06;;;;;;;;;;;24.00;49.90;;;;;;1552144;76;1162;-63
2021/12/09 03:44:08;;;;;;;;;;;24.00;49.90;;;;;;1540917;76;765;-63
2021/12/09 03:46:10;;;;;;;;;;;24.00;49.80;;;;;;1553974;76;730;-63
2021/12/09 03:48:12;;;;;;;;;;;24.00;49.80;;;;;;1551108;76;750;-64
2021/12/09 03:50:13;;;;;;;;;;;24.00;49.80;;;;;;1548753;76;1947;-63
2021/12/09 03:52:15;;;;;;;;;;;24.10;49.80;;;;;;1553065;76;1164;-63
2021/12/09 03:54:17;;;;;;;;;;;24.00;49.70;;;;;;1554078;76;770;-62
2021/12/09 03:56:19;;;;;;;;;;;24.10;49.70;;;;;;1556923;76;771;-62
2021/12/09 03:58:21;;;;;;;;;;;24.00;49.50;;;;;;1546262;76;753;-62
2021/12/09 04:00:28;;;;;;;;;;;24.10;49.60;;;;;;1553996;76;711;-62
2021/12/09 04:02:30;;;;;;;;;;;24.10;49.50;;;;;;1554932;76;1131;-68
2021/12/09 04:04:32;;;;;;;;;;;24.10;49.50;;;;;;1557195;76;808;-67
2021/12/09 04:06:34;;;;;;;;;;;24.10;49.70;;;;;;1548510;76;807;-68
2021/12/09 04:08:36;;;;;;;;;;;24.20;49.50;;;;;;1548645;76;763;-67
2021/12/09 04:10:37;;;;;;;;;;;24.10;49.50;;;;;;1547545;76;1935;-68
2021/12/09 04:12:39;;;;;;;;;;;24.20;49.50;;;;;;1553992;76;1229;-70
2021/12/09 04:14:41;;;;;;;;;;;24.20;49.40;;;;;;1540681;75;744;-70
2021/12/09 04:16:43;;;;;;;;;;;24.20;49.30;;;;;;1544448;76;721;-69
2021/12/09 04:18:45;;;;;;;;;;;24.20;49.30;;;;;;1547681;76;808;-68
2021/12/09 04:20:49;;;;;;;;;;;24.30;49.40;;;;;;1541479;76;814;-71
2021/12/09 04:22:51;;;;;;;;;;;24.20;49.20;;;;;;1558429;76;1117;-67
2021/12/09 04:24:52;;;;;;;;;;;24.20;49.20;;;;;;1554960;76;764;-71
2021/12/09 04:26:54;;;;;;;;;;;24.30;49.40;;;;;;1545691;76;739;-67
2021/12/09 04:28:56;;;;;;;;;;;24.20;49.40;;;;;;1551146;76;719;-66
2021/12/09 04:30:58;;;;;;;;;;;24.30;49.40;;;;;;1553846;76;1955;-65
2021/12/09 04:33:00;;;;;;;;;;;24.30;49.40;;;;;;1551628;76;1128;-67
2021/12/09 04:35:02;;;;;;;;;;;24.40;49.20;;;;;;1556562;76;765;-66
2021/12/09 04:37:04;;;;;;;;;;;24.40;49.20;;;;;;1544999;76;731;-66
2021/12/09 04:39:06;;;;;;;;;;;24.40;49.10;;;;;;1553883;76;728;-65
2021/12/09 04:41:08;;;;;;;;;;;24.50;49.20;;;;;;1553900;76;1167;-66
2021/12/09 04:43:10;;;;;;;;;;;24.30;49.20;;;;;;1551772;76;763;-66
2021/12/09 04:45:12;;;;;;;;;;;24.30;49.30;;;;;;1547927;76;818;-66
2021/12/09 04:47:13;;;;;;;;;;;24.40;49.20;;;;;;1535381;76;723;-69
2021/12/09 04:49:15;;;;;;;;;;;24.40;49.20;;;;;;1538500;75;779;-66
2021/12/09 04:51:17;;;;;;;;;;;24.40;49.10;;;;;;1536187;76;2110;-67
2021/12/09 04:53:19;;;;;;;;;;;24.40;49.00;;;;;;1534893;76;738;-69
2021/12/09 04:55:21;;;;;;;;;;;24.40;48.90;;;;;;1537315;76;759;-66
2021/12/09 04:57:23;;;;;;;;;;;24.50;49.00;;;;;;1546794;76;734;-67
2021/12/09 04:59:25;;;;;;;;;;;24.50;48.90;;;;;;1543033;76;741;-66
2021/12/09 05:01:27;;;;;;;;;;;24.50;48.90;;;;;;1551216;76;1138;-68
2021/12/09 05:03:28;;;;;;;;;;;24.50;48.90;;;;;;1544066;76;779;-66
2021/12/09 05:05:33;;;;;;;;;;;24.50;48.90;;;;;;1552529;76;692;-66
2021/12/09 05:07:35;;;;;;;;;;;24.50;48.90;;;;;;1550779;76;933;-66
2021/12/09 05:09:39;;;;;;;;;;;24.50;48.80;;;;;;1545485;76;683;-66
2021/12/09 05:13:44;;;;;;;;;;;24.40;49.00;;;;;;1544939;76;874;-69
2021/12/09 05:15:46;;;;;;;;;;;24.40;49.20;;;;;;1545467;76;712;-65
2021/12/09 05:17:48;;;;;;;;;;;24.40;49.10;;;;;;1547570;76;760;-66
2021/12/09 05:19:50;;;;;;;;;;;24.40;49.20;;;;;;1547758;76;725;-66
2021/12/09 05:21:54;;;;;;;;;;;24.30;49.30;;;;;;1537202;76;1129;-65
2021/12/09 05:23:56;;;;;;;;;;;24.30;49.40;;;;;;1553319;76;734;-70
2021/12/09 05:25:58;;;;;;;;;;;24.30;49.40;;;;;;1551872;76;742;-66
2021/12/09 05:28:00;;;;;;;;;;;24.30;49.50;;;;;;1547512;76;1319;-66
2021/12/09 05:30:11;;;;;;;;;;;24.30;49.60;;;;;;1553539;76;1919;-65
2021/12/09 05:32:13;;;;;;;;;;;24.40;49.50;;;;;;1545068;76;1735;-65
2021/12/09 05:34:15;;;;;;;;;;;24.40;49.20;;;;;;1545388;76;902;-65
2021/12/09 05:36:17;;;;;;;;;;;24.40;49.20;;;;;;1540877;76;725;-67
2021/12/09 05:38:19;;;;;;;;;;;24.50;49.20;;;;;;1544662;76;786;-66
2021/12/09 05:40:21;;;;;;;;;;;24.60;49.10;;;;;;1548858;76;786;-66
2021/12/09 05:42:23;;;;;;;;;;;24.50;49.00;;;;;;1542077;76;1315;-65
2021/12/09 05:44:25;;;;;;;;;;;24.50;49.00;;;;;;1546102;76;658;-67
2021/12/09 05:46:27;;;;;;;;;;;24.50;49.10;;;;;;1541026;75;779;-67
2021/12/09 05:48:30;;;;;;;;;;;24.40;49.20;;;;;;1546671;76;726;-66
2021/12/09 05:50:32;;;;;;;;;;;24.40;49.20;;;;;;1552198;76;1933;-63
2021/12/09 05:52:33;;;;;;;;;;;24.30;49.40;;;;;;1548417;76;1179;-62
2021/12/09 05:54:36;;;;;;;;;;;24.40;49.30;;;;;;1546725;76;702;-62
2021/12/09 05:56:37;;;;;;;;;;;24.40;49.20;;;;;;1542503;76;886;-66
2021/12/09 05:58:39;;;;;;;;;;;24.40;49.20;;;;;;1546220;76;845;-65
2021/12/09 06:00:41;;;;;;;;;;;24.40;49.20;;;;;;1539470;76;796;-64
2021/12/09 06:02:43;;;;;;;;;;;24.50;49.20;;;;;;1553922;76;1134;-64
2021/12/09 06:04:45;;;;;;;;;;;24.40;49.10;;;;;;1549924;76;822;-63
2021/12/09 06:06:47;;;;;;;;;;;24.50;49.10;;;;;;1554000;76;750;-67
2021/12/09 06:08:50;;;;;;;;;;;24.50;49.20;;;;;;1552992;76;764;-63
2021/12/09 06:10:52;;;;;;;;;;;24.40;49.10;;;;;;1546120;76;1909;-60
2021/12/09 06:12:54;;;;;;;;;;;24.50;49.20;;;;;;1546218;76;1099;-62
2021/12/09 06:14:55;;;;;;;;;;;24.50;49.20;;;;;;1557353;76;785;-64
2021/12/09 06:16:57;;;;;;;;;;;24.40;49.10;;;;;;1554809;76;778;-62
2021/12/09 06:19:01;;;;;;;;;;;24.30;49.20;;;;;;1552993;76;838;-62
2021/12/09 06:21:03;;;;;;;;;;;24.30;49.20;;;;;;1553363;76;851;-64
2021/12/09 06:23:05;;;;;;;;;;;24.30;49.20;;;;;;1542436;76;1221;-66
2021/12/09 06:25:09;;;;;;;;;;;24.40;49.20;;;;;;1556939;76;773;-63
2021/12/09 06:27:11;;;;;;;;;;;24.30;49.30;;;;;;1554519;76;645;-63
2021/12/09 06:29:13;;;;;;;;;;;24.20;49.20;;;;;;1553847;76;786;-63
2021/12/09 06:31:14;;;;;;;;;;;24.20;49.20;;;;;;1540927;76;1935;-61
2021/12/09 06:33:16;;;;;;;;;;;24.30;49.40;;;;;;1546940;76;805;-63
2021/12/09 06:35:19;;;;;;;;;;;24.20;49.30;;;;;;1546412;76;780;-64
2021/12/09 06:37:21;;;;;;;;;;;24.20;49.40;;;;;;1549672;76;821;-62
2021/12/09 06:39:22;;;;;;;;;;;24.20;49.40;;;;;;1556914;76;909;-62
2021/12/09 06:41:24;;;;;;;;;;;24.20;49.30;;;;;;1550071;76;1175;-60
2021/12/09 06:43:27;;;;;;;;;;;24.20;49.40;;;;;;1540138;76;813;-62
2021/12/09 06:45:29;;;;;;;;;;;24.20;49.40;;;;;;1551924;76;815;-61
2021/12/09 06:47:30;;;;;;;;;;;24.20;49.30;;;;;;1552426;76;745;-61
2021/12/09 06:49:32;;;;;;;;;;;24.20;49.30;;;;;;1546060;76;813;-63
2021/12/09 06:51:34;;;;;;;;;;;24.10;49.30;;;;;;1557372;76;1932;-61
2021/12/09 06:53:36;;;;;;;;;;;24.20;49.30;;;;;;1558489;76;856;-63
2021/12/09 06:55:38;;;;;;;;;;;24.10;49.20;;;;;;1552382;76;746;-62
2021/12/09 06:57:42;;;;;;;;;;;24.10;49.20;;;;;;1551506;76;704;-61
2021/12/09 06:59:44;;;;;;;;;;;24.10;49.20;;;;;;1553950;76;1853;-62
2021/12/09 07:01:46;;;;;;;;;;;24.10;49.20;;;;;;1552592;76;1153;-62
2021/12/09 07:03:47;;;;;;;;;;;24.00;49.10;;;;;;1554024;76;781;-62
2021/12/09 07:05:50;;;;;;;;;;;24.10;49.10;;;;;;1550198;76;812;-66
2021/12/09 07:07:52;;;;;;;;;;;24.10;49.10;;;;;;1554602;76;740;-65
2021/12/09 07:09:54;;;;;;;;;;;24.10;49.00;;;;;;1536180;76;746;-64
2021/12/09 07:11:56;;;;;;;;;;;24.10;49.00;;;;;;1554875;76;1921;-63
2021/12/09 07:13:58;;;;;;;;;;;24.00;48.90;;;;;;1549735;76;659;-62
2021/12/09 07:16:00;;;;;;;;;;;24.10;49.00;;;;;;1543306;76;815;-62
2021/12/09 07:18:02;;;;;;;;;;;24.00;48.80;;;;;;1545489;76;852;-63
2021/12/09 07:20:04;;;;;;;;;;;24.00;48.90;;;;;;1545334;76;799;-62
2021/12/09 07:22:06;;;;;;;;;;;24.00;48.80;;;;;;1542113;76;1126;-65
2021/12/09 07:24:08;;;;;;;;;;;24.00;48.90;;;;;;1545444;76;719;-62
2021/12/09 07:26:10;;;;;;;;;;;24.00;48.70;;;;;;1555022;76;827;-62
2021/12/09 07:28:12;;;;;;;;;;;24.00;48.80;;;;;;1557413;76;746;-64
2021/12/09 07:30:14;;;;;;;;;;;24.00;48.80;;;;;;1554223;76;709;-61
2021/12/09 07:32:16;;;;;;;;;;;24.00;48.70;;;;;;1552046;76;1924;-62
2021/12/09 07:34:18;;;;;;;;;;;24.00;48.70;;;;;;1552479;76;793;-63
2021/12/09 07:36:20;;;;;;;;;;;24.00;48.60;;;;;;1547604;76;695;-63
2021/12/09 07:38:22;;;;;;;;;;;24.00;48.70;;;;;;1547731;76;733;-62
2021/12/09 07:40:24;;;;;;;;;;;24.10;48.80;;;;;;1549860;76;755;-62
2021/12/09 07:42:26;;;;;;;;;;;24.00;48.60;;;;;;1554475;76;1132;-62
2021/12/09 07:44:28;;;;;;;;;;;24.00;48.60;;;;;;1546967;76;807;-62
2021/12/09 07:46:30;;;;;;;;;;;24.00;48.60;;;;;;1551284;76;730;-64
2021/12/09 07:48:32;;;;;;;;;;;24.00;48.60;;;;;;1547208;76;760;-66
2021/12/09 07:50:34;;;;;;;;;;;24.00;48.60;;;;;;1547127;76;692;-62
2021/12/09 07:52:36;;;;;;;;;;;23.90;48.50;;;;;;1551744;76;1892;-62
2021/12/09 07:54:38;;;;;;;;;;;24.00;48.60;;;;;;1552139;76;830;-62
2021/12/09 07:56:39;;;;;;;;;;;23.90;48.50;;;;;;1550749;76;804;-63
2021/12/09 07:58:41;;;;;;;;;;;24.00;48.50;;;;;;1545632;76;754;-63
2021/12/09 08:00:43;;;;;;;;;;;24.00;48.50;;;;;;1552148;76;764;-63
2021/12/09 08:02:45;;;;;;;;;;;23.90;48.50;;;;;;1543065;76;1091;-62
2021/12/09 08:04:47;;;;;;;;;;;24.00;48.40;;;;;;1547114;76;754;-64
2021/12/09 08:06:49;;;;;;;;;;;24.00;48.50;;;;;;1535984;76;818;-62
2021/12/09 08:08:51;;;;;;;;;;;23.90;48.50;;;;;;1545488;76;772;-66
2021/12/09 08:10:53;;;;;;;;;;;23.90;48.50;;;;;;1553532;76;1939;-65
2021/12/09 08:12:55;;;;;;;;;;;23.90;48.50;;;;;;1553865;76;1114;-68
2021/12/09 08:14:57;;;;;;;;;;;23.90;48.50;;;;;;1553733;76;800;-59
2021/12/09 08:17:12;;;;;;;;;;;24.00;48.40;;;;;;1550600;76;748;-62
2021/12/09 08:19:12;;;;;;;;;;;23.90;48.40;;;;;;1557175;76;1695;-62
2021/12/09 08:21:14;;;;;;;;;;;23.90;48.40;;;;;;1551205;76;1151;-64
2021/12/09 08:23:16;;;;;;;;;;;23.90;48.30;;;;;;1548014;76;805;-64
2021/12/09 08:25:18;;;;;;;;;;;23.90;48.30;;;;;;1557116;76;753;-62
2021/12/09 08:27:20;;;;;;;;;;;23.90;48.40;;;;;;1551732;75;747;-63
2021/12/09 08:29:22;;;;;;;;;;;23.90;48.30;;;;;;1545786;76;788;-62
2021/12/09 08:31:43;;;;;;;;;;;23.90;48.20;;;;;;1538660;76;1936;-62
2021/12/09 08:33:45;;;;;;;;;;;23.90;48.20;;;;;;1528310;75;669;-61
2021/12/09 08:35:47;;;;;;;;;;;23.90;48.20;;;;;;1530613;76;699;-59
2021/12/09 08:37:49;;;;;;;;;;;23.90;48.20;;;;;;1523146;76;1173;-61
2021/12/09 08:39:51;;;;;;;;;;;23.90;48.20;;;;;;1505980;77;740;-60
2021/12/09 08:41:53;;;;;;;;;;;23.90;48.10;;;;;;1481121;79;698;-60
2021/12/09 08:43:54;;;;;;;;;;;23.90;48.20;;;;;;1483685;79;669;-59
2021/12/09 08:45:56;;;;;;;;;;;23.90;48.20;;;;;;1477724;79;694;-59
2021/12/09 08:47:58;;;;;;;;;;;23.90;48.10;;;;;;1507203;78;746;-60
2021/12/09 08:50:00;;;;;;;;;;;23.90;48.10;;;;;;1484881;78;740;-60
2021/12/09 08:52:02;;;;;;;;;;;23.90;48.10;;;;;;1497356;77;1946;-60
2021/12/09 08:54:04;;;;;;;;;;;23.90;48.10;;;;;;1496791;77;770;-61
2021/12/09 08:56:06;;;;;;;;;;;23.90;48.20;;;;;;1530328;77;1138;-60
2021/12/09 08:58:08;;;;;;;;;;;24.00;48.20;;;;;;1508781;77;658;-59
2021/12/09 09:00:11;;;;;;;;;;;23.90;48.10;;;;;;1483784;79;758;-60
2021/12/09 09:02:14;;;;;;;;;;;24.00;48.10;;;;;;1484656;78;785;-60
2021/12/09 09:04:16;;;;;;;;;;;23.90;48.10;;;;;;1496700;77;785;-59
2021/12/09 09:06:18;;;;;;;;;;;23.90;48.10;;;;;;1499109;78;1157;-59
2021/12/09 09:08:19;;;;;;;;;;;23.90;48.10;;;;;;1499671;79;734;-58
2021/12/09 09:10:23;;;;;;;;;;;23.90;48.10;;;;;;1499104;79;815;-57
2021/12/09 09:12:26;;;;;;;;;;;23.90;48.10;;;;;;1529615;77;1941;-59
2021/12/09 09:14:28;;;;;;;;;;;24.00;48.10;;;;;;1525860;77;794;-59
2021/12/09 09:16:30;;;;;;;;;;;24.00;48.10;;;;;;1529834;77;1128;-58
2021/12/09 09:18:32;;;;;;;;;;;23.90;48.10;;;;;;1509155;77;715;-58
2021/12/09 09:20:38;;;;;;;;;;;24.00;48.10;;;;;;1484655;78;812;-57
2021/12/09 09:22:38;;;;;;;;;;;23.90;48.00;;;;;;1505661;78;1516;-58
2021/12/09 09:24:41;;;;;;;;;;;23.90;48.10;;;;;;1479942;79;738;-57
2021/12/09 09:26:42;;;;;;;;;;;24.00;48.10;;;;;;1480400;79;1172;-57
2021/12/09 09:28:45;;;;;;;;;;;24.00;48.00;;;;;;1526082;77;712;-56
2021/12/09 09:30:53;;;;;;;;;;;24.00;48.00;;;;;;1475444;79;716;-57
2021/12/09 09:32:51;;;;;;;;;;;23.90;48.00;;;;;;1483137;78;1924;-57
2021/12/09 09:34:54;;;;;;;;;;;23.90;48.00;;;;;;1478931;79;708;-59
2021/12/09 09:36:55;;;;;;;;;;;23.90;47.90;;;;;;1483052;79;1166;-58
2021/12/09 09:39:06;;;;;;;;;;;24.00;48.00;;;;;;1531628;76;723;-57
2021/12/09 09:41:07;;;;;;;;;;;24.00;48.00;;;;;;1504550;77;1622;-56
2021/12/09 09:43:25;;;;;;;;;;;24.00;48.00;;;;;;1486626;78;1805;-58
2021/12/09 09:45:11;;;;;;;;;;;23.90;48.00;;;;;;1480981;78;1720;-58
2021/12/09 09:47:13;;;;;;;;;;;24.00;48.00;;;;;;1482237;78;1134;-55
2021/12/09 09:49:15;;;;;;;;;;;24.00;48.00;;;;;;1481195;78;871;-54
2021/12/09 09:51:18;;;;;;;;;;;24.00;48.00;;;;;;1488291;78;781;-55
2021/12/09 09:53:20;;;;;;;;;;;24.00;47.90;;;;;;1485321;78;1875;-55
2021/12/09 09:55:22;;;;;;;;;;;24.00;47.90;;;;;;1481742;78;719;-54
2021/12/09 09:57:25;;;;;;;;;;;24.00;47.90;;;;;;1486455;78;1116;-57
2021/12/09 09:59:27;;;;;;;;;;;24.00;47.90;;;;;;1483300;78;762;-58
2021/12/09 10:01:29;;;;;;;;;;;24.00;47.90;;;;;;1480777;78;650;-56
2021/12/09 10:03:34;;;;;;;;;;;24.00;47.80;;;;;;1486082;78;746;-57
2021/12/09 10:05:37;;;;;;;;;;;24.00;47.90;;;;;;1475991;79;1568;-54
2021/12/09 10:07:38;;;;;;;;;;;24.00;47.80;;;;;;1476101;79;1659;-57
2021/12/09 10:09:40;;;;;;;;;;;24.10;47.90;;;;;;1511400;77;745;-54
2021/12/09 10:11:42;;;;;;;;;;;24.00;47.70;;;;;;1504215;77;1918;-58
2021/12/09 10:13:44;;;;;;;;;;;24.00;47.60;;;;;;1483040;78;744;-58
2021/12/09 10:15:47;;;;;;;;;;;24.00;47.60;;;;;;1483227;78;772;-59
2021/12/09 10:17:49;;;;;;;;;;;24.00;47.50;;;;;;1479917;79;1094;-56
2021/12/09 10:19:53;;;;;;;;;;;24.00;47.50;;;;;;1487935;78;743;-59
2021/12/09 10:21:59;;;;;;;;;;;24.00;47.50;;;;;;1478661;79;753;-56
2021/12/09 10:24:03;;;;;;;;;;;24.00;47.30;;;;;;1477487;79;1690;-58
2021/12/09 10:26:09;;;;;;;;;;;24.00;47.40;;;;;;1506988;78;1164;-59
2021/12/09 10:28:11;;;;;;;;;;;24.00;47.30;;;;;;1528744;76;1820;-58
2021/12/09 10:30:17;;;;;;;;;;;24.00;47.20;;;;;;1507172;78;1021;-59
2021/12/09 10:32:21;;;;;;;;;;;23.90;47.00;;;;;;1530923;76;1920;-59
2021/12/09 10:34:37;;;;;;;;;;;23.90;47.00;;;;;;1531022;77;801;-59
2021/12/09 10:36:50;;;;;;;;;;;23.90;46.90;;;;;;1531300;77;1207;-59
2021/12/09 10:38:52;;;;;;;;;;;24.00;46.90;;;;;;1531206;77;714;-58
2021/12/09 10:40:53;;;;;;;;;;;23.90;46.80;;;;;;1531423;77;794;-58
2021/12/09 10:42:57;;;;;;;;;;;23.90;46.80;;;;;;1509013;78;581;-59
2021/12/09 10:45:00;;;;;;;;;;;24.00;46.70;;;;;;1484314;78;780;-57
2021/12/09 10:47:09;;;;;;;;;;;23.90;46.70;;;;;;1498120;79;1144;-60
2021/12/09 10:49:17;;;;;;;;;;;23.90;46.60;;;;;;1531242;77;1541;-60
2021/12/09 10:51:26;;;;;;;;;;;24.00;46.80;;;;;;1530782;77;1483;-59
2021/12/09 10:55:27;;;;;;;;;;;23.90;46.70;;;;;;1480245;78;864;-59
2021/12/09 10:57:30;;;;;;;;;;;24.00;46.70;;;;;;1498880;79;1148;-61
2021/12/09 10:59:32;;;;;;;;;;;24.00;46.80;;;;;;1499556;79;722;-58
2021/12/09 11:01:35;;;;;;;;;;;24.00;46.80;;;;;;1520384;77;727;-57
2021/12/09 11:03:38;;;;;;;;;;;24.00;46.70;;;;;;1522406;77;717;-60
2021/12/09 11:05:45;;;;;;;;;;;24.00;46.70;;;;;;1508107;77;784;-57
2021/12/09 11:07:46;;;;;;;;;;;24.00;46.70;;;;;;1485978;79;1098;-57
2021/12/09 11:09:48;;;;;;;;;;;24.00;46.70;;;;;;1508721;78;719;-59
2021/12/09 11:11:53;;;;;;;;;;;24.10;46.80;;;;;;1494835;79;1949;-59
2021/12/09 11:13:56;;;;;;;;;;;24.10;46.80;;;;;;1489190;78;1537;-59
2021/12/09 11:15:58;;;;;;;;;;;24.10;46.80;;;;;;1501489;77;1136;-61
2021/12/09 11:18:07;;;;;;;;;;;24.10;46.80;;;;;;1508682;77;675;-60
2021/12/09 11:20:04;;;;;;;;;;;24.10;46.70;;;;;;1507540;77;1502;-58
2021/12/09 11:22:09;;;;;;;;;;;24.00;46.60;;;;;;1485208;79;820;-59
2021/12/09 11:24:13;;;;;;;;;;;24.10;46.70;;;;;;1504043;78;1835;-60
2021/12/09 11:26:22;;;;;;;;;;;24.10;46.80;;;;;;1509107;78;1168;-60
2021/12/09 11:28:25;;;;;;;;;;;24.00;46.50;;;;;;1509372;78;1873;-60
2021/12/09 11:30:26;;;;;;;;;;;24.10;46.70;;;;;;1497215;78;1689;-60
2021/12/09 11:32:50;;;;;;;;;;;24.10;46.80;;;;;;1464474;79;1930;-58
2021/12/09 11:34:50;;;;;;;;;;;24.10;46.80;;;;;;1480323;79;1637;-59
2021/12/09 11:36:55;;;;;;;;;;;24.00;46.60;;;;;;1484895;79;1580;-59
2021/12/09 11:39:08;;;;;;;;;;;24.00;46.70;;;;;;1529685;77;1530;-56
2021/12/09 11:41:24;;;;;;;;;;;24.10;46.80;;;;;;1528379;77;673;-58
2021/12/09 11:43:26;;;;;;;;;;;24.10;46.80;;;;;;1465404;77;1182;-59
2021/12/09 11:45:29;;;;;;;;;;;24.10;46.80;;;;;;1509502;78;760;-59
2021/12/09 11:47:31;;;;;;;;;;;24.10;46.80;;;;;;1484782;79;1165;-59
2021/12/09 11:49:33;;;;;;;;;;;24.20;46.80;;;;;;1485111;78;735;-59
2021/12/09 11:51:35;;;;;;;;;;;24.20;46.80;;;;;;1482459;78;773;-58
2021/12/09 11:53:42;;;;;;;;;;;24.20;46.80;;;;;;1485658;79;1942;-60
2021/12/09 11:58:01;;;;;;;;;;;24.10;46.80;;;;;;1462312;78;1167;-59
2021/12/09 12:11:37;;;;;;;;;;;24.10;46.90;;;;;;1530035;77;1652;-58
2021/12/09 12:13:44;;;;;;;;;;;24.00;46.80;;;;;;1532741;77;1910;-57
2021/12/09 12:15:52;;;;;;;;;;;24.10;46.90;;;;;;1507441;77;1614;-59
2021/12/09 12:18:23;;;;;;;;;;;24.00;46.80;;;;;;1485211;79;1574;-58
2021/12/09 12:20:20;;;;;;;;;;;24.00;46.80;;;;;;1502771;78;1440;-56
2021/12/09 12:22:47;;;;;;;;;;;24.00;46.80;;;;;;1482162;79;1634;-58
2021/12/09 12:33:52;;;;;;;;;;;24.00;46.90;;;;;;1499081;77;1915;-59
2021/12/09 12:36:15;;;;;;;;;;;24.00;46.90;;;;;;1467212;80;1487;-59
2021/12/09 12:40:07;;;;;;;;;;;24.00;47.00;;;;;;1520744;77;852;-59
2021/12/09 12:42:16;;;;;;;;;;;24.00;47.00;;;;;;1521979;77;784;-59